Time;durP1;ratioP1;P1;durP2;ratioP2;P2;SDS_P1;SDS_P2;PMS_P1;PMS_P2;Temp;Humidity;BMP_temperature;BMP_pressure;BME280_temperature;BME280_humidity;BME280_pressure;Samples;Min_cycle;Max_cycle;Signal;HPM_P1;HPM_P2
2023/05/12 00:02:11;;;;;;;38.33;16.20;;;;;;;11.69;100.00;100080.06;5061219;28;20045;-95
2023/05/12 00:04:44;;;;;;;33.95;14.60;;;;;;;12.06;100.00;100138.09;5053409;28;20024;-94
2023/05/12 00:07:13;;;;;;;32.17;15.18;;;;;;;12.05;100.00;100133.75;5057718;28;20037;-95
2023/05/12 00:09:47;;;;;;;36.25;15.77;;;;;;;11.76;100.00;100078.81;5056887;28;20083;-94
2023/05/12 00:12:15;;;;;;;30.90;14.50;;;;;;;12.13;100.00;100134.13;5055747;28;20052;-95
2023/05/12 00:14:59;;;;;;;27.02;13.25;;;;;;;12.18;100.00;100134.75;5060215;28;20134;-95
2023/05/12 00:17:27;;;;;;;22.58;13.35;;;;;;;12.20;100.00;100146.13;5067273;28;20036;-95
2023/05/12 00:19:57;;;;;;;26.08;12.68;;;;;;;12.17;100.00;100143.66;5067537;28;20058;-96
2023/05/12 00:22:26;;;;;;;23.38;12.77;;;;;;;11.81;100.00;100071.44;5066315;28;20044;-96
2023/05/12 00:24:57;;;;;;;24.17;12.70;;;;;;;11.80;100.00;100067.09;5057620;28;20089;-94
2023/05/12 00:27:24;;;;;;;26.50;12.88;;;;;;;11.90;100.00;100076.22;5056411;28;20083;-95
2023/05/12 00:30:01;;;;;;;20.60;11.40;;;;;;;11.58;100.00;100031.16;5055384;28;20044;-96
2023/05/12 00:32:35;;;;;;;20.75;12.65;;;;;;;12.01;100.00;100092.38;5047598;28;20048;-95
2023/05/12 00:35:16;;;;;;;26.98;13.65;;;;;;;12.03;100.00;100101.13;5063498;28;20041;-94
2023/05/12 00:38:09;;;;;;;26.23;13.30;;;;;;;12.17;100.00;100127.72;5060197;28;20048;-94
2023/05/12 00:40:41;;;;;;;26.45;12.98;;;;;;;11.87;100.00;100092.31;5061699;28;20124;-94
2023/05/12 00:43:12;;;;;;;27.65;12.57;;;;;;;11.85;100.00;100091.56;5044798;28;20067;-94
2023/05/12 00:45:43;;;;;;;19.15;11.30;;;;;;;11.71;100.00;100064.91;5064759;28;20049;-94
2023/05/12 00:48:14;;;;;;;17.45;10.07;;;;;;;11.94;100.00;100114.94;5063095;28;20048;-93
2023/05/12 00:50:46;;;;;;;18.00;10.15;;;;;;;11.80;100.00;100083.03;5031980;28;20074;-95
2023/05/12 00:53:18;;;;;;;19.95;10.43;;;;;;;11.95;100.00;100121.94;5073457;28;20079;-93
2023/05/12 00:55:53;;;;;;;25.23;11.75;;;;;;;11.86;100.00;100112.69;5073463;28;20076;-93
2023/05/12 00:58:29;;;;;;;21.75;11.13;;;;;;;11.91;100.00;100118.59;5086247;28;20044;-93
2023/05/12 01:01:05;;;;;;;21.73;10.25;;;;;;;11.85;100.00;100100.38;5073974;28;20068;-94
2023/05/12 01:03:40;;;;;;;19.10;10.65;;;;;;;11.48;100.00;100037.06;5092144;28;20040;-94
2023/05/12 01:06:37;;;;;;;24.83;12.35;;;;;;;11.49;100.00;100038.78;5074653;28;20071;-94
2023/05/12 01:09:11;;;;;;;26.50;11.93;;;;;;;11.68;100.00;100081.00;5090850;28;20048;-94
2023/05/12 01:11:41;;;;;;;33.33;13.32;;;;;;;11.49;100.00;100060.81;5070239;28;20045;-95
2023/05/12 01:14:11;;;;;;;27.63;13.20;;;;;;;11.42;100.00;100045.34;5065440;28;20044;-94
2023/05/12 01:16:50;;;;;;;28.15;11.55;;;;;;;11.96;100.00;100128.97;5073174;28;20048;-93
2023/05/12 01:19:34;;;;;;;21.73;10.88;;;;;;;12.06;100.00;100131.94;5095390;28;20051;-93
2023/05/12 01:22:05;;;;;;;22.92;10.68;;;;;;;12.02;100.00;100117.97;5077758;28;20036;-93
2023/05/12 01:24:37;;;;;;;17.30;8.45;;;;;;;12.04;100.00;100126.72;5091656;28;20044;-93
2023/05/12 01:27:08;;;;;;;11.63;6.63;;;;;;;12.10;100.00;100134.34;5058545;28;20393;-93
2023/05/12 01:29:50;;;;;;;11.23;5.80;;;;;;;11.87;100.00;100105.59;5067136;28;20062;-93
2023/05/12 01:33:00;;;;;;;12.98;7.10;;;;;;;11.94;100.00;100115.78;5117796;27;1495600;-93
2023/05/12 01:35:30;;;;;;;12.70;7.82;;;;;;;12.02;100.00;100133.03;5130189;28;20047;-93
2023/05/12 01:38:03;;;;;;;14.40;8.18;;;;;;;11.99;100.00;100131.41;5131567;28;20112;-93
2023/05/12 01:40:31;;;;;;;17.95;10.25;;;;;;;12.08;100.00;100146.84;5115843;28;20051;-92
2023/05/12 01:43:01;;;;;;;19.58;11.27;;;;;;;12.08;100.00;100138.88;5133930;28;20048;-93
2023/05/12 01:45:36;;;;;;;18.88;11.65;;;;;;;12.09;100.00;100145.91;5132660;28;20047;-93
2023/05/12 01:48:12;;;;;;;21.63;12.20;;;;;;;12.12;100.00;100135.06;5136349;27;20045;-93
2023/05/12 01:50:53;;;;;;;20.48;12.00;;;;;;;12.06;100.00;100135.44;5173371;27;20043;-94
2023/05/12 01:53:21;;;;;;;21.55;11.85;;;;;;;12.09;100.00;100148.56;5137648;27;20081;-95
2023/05/12 01:55:48;;;;;;;18.80;11.20;;;;;;;12.17;100.00;100156.06;5147511;27;20069;-95
2023/05/12 01:58:29;;;;;;;19.88;11.35;;;;;;;12.07;100.00;100147.78;5145900;27;20054;-94
2023/05/12 02:01:05;;;;;;;20.17;12.07;;;;;;;12.14;100.00;100170.34;5127931;27;20439;-95
2023/05/12 02:03:38;;;;;;;16.52;10.13;;;;;;;11.94;100.00;100129.06;5163865;27;20058;-94
2023/05/12 02:06:11;;;;;;;18.00;10.00;;;;;;;12.05;100.00;100162.94;5147363;27;20065;-94
2023/05/12 02:08:57;;;;;;;14.55;9.07;;;;;;;12.11;100.00;100172.34;5116589;28;20071;-94
2023/05/12 02:11:30;;;;;;;15.60;8.65;;;;;;;11.89;100.00;100144.38;5095362;28;20099;-93
2023/05/12 02:13:57;;;;;;;14.77;8.75;;;;;;;12.00;100.00;100167.63;5116561;28;20036;-93
2023/05/12 02:16:24;;;;;;;15.43;8.70;;;;;;;12.05;100.00;100176.19;5106239;28;20047;-93
2023/05/12 02:18:53;;;;;;;13.18;8.30;;;;;;;11.98;100.00;100172.16;5119125;28;20097;-92
2023/05/12 02:21:41;;;;;;;15.20;8.95;;;;;;;12.08;100.00;100180.47;5122902;28;20521;-95
2023/05/12 02:24:17;;;;;;;14.98;9.30;;;;;;;11.73;100.00;100129.34;5138727;27;20490;-93
2023/05/12 02:26:49;;;;;;;15.65;9.57;;;;;;;11.64;100.00;100122.78;5136916;27;20039;-93
2023/05/12 02:29:17;;;;;;;17.90;10.20;;;;;;;11.83;100.00;100157.97;5117801;28;20081;-94
2023/05/12 02:31:46;;;;;;;19.70;11.70;;;;;;;11.94;100.00;100178.63;5134944;28;20492;-94
2023/05/12 02:34:14;;;;;;;24.30;12.02;;;;;;;11.79;100.00;100174.16;5136668;28;20090;-94
2023/05/12 02:36:47;;;;;;;25.92;13.35;;;;;;;11.51;100.00;100117.28;5142400;28;20036;-94
2023/05/12 02:39:19;;;;;;;23.92;12.25;;;;;;;11.69;100.00;100146.38;5134303;28;20039;-93
2023/05/12 02:41:50;;;;;;;17.58;9.20;;;;;;;11.80;100.00;100160.81;5151271;28;20046;-92
2023/05/12 02:44:21;;;;;;;14.98;8.45;;;;;;;11.73;100.00;100151.44;5116133;28;20039;-93
2023/05/12 02:46:48;;;;;;;13.65;6.80;;;;;;;11.79;100.00;100169.72;5115726;28;20039;-90
2023/05/12 02:49:19;;;;;;;10.65;5.20;;;;;;;11.86;100.00;100186.97;5121429;28;20050;-92
2023/05/12 02:51:48;;;;;;;7.18;2.88;;;;;;;11.81;100.00;100188.16;5122400;28;20472;-91
2023/05/12 02:54:26;;;;;;;3.20;1.85;;;;;;;11.70;100.00;100187.88;5126151;28;20051;-92
2023/05/12 02:57:05;;;;;;;2.67;1.92;;;;;;;11.61;100.00;100191.91;5123380;28;20100;-91
2023/05/12 02:59:37;;;;;;;2.47;1.90;;;;;;;11.53;100.00;100187.00;5090855;28;20047;-92
2023/05/12 03:02:06;;;;;;;3.50;1.70;;;;;;;11.51;100.00;100195.97;5101679;28;20036;-93
2023/05/12 03:04:33;;;;;;;1.98;1.77;;;;;;;11.44;100.00;100181.34;5100102;28;20147;-93
2023/05/12 03:07:03;;;;;;;;;;;;;;;11.47;100.00;100194.44;5102435;28;20047;-93
2023/05/12 03:09:33;;;;;;;3.22;2.20;;;;;;;11.38;100.00;100171.91;5067407;28;19920;-93
2023/05/12 03:12:00;;;;;;;4.53;3.22;;;;;;;11.45;100.00;100188.38;5102042;28;20465;-93
2023/05/12 03:14:28;;;;;;;4.00;3.35;;;;;;;11.24;100.00;100155.91;5085425;28;20111;-92
2023/05/12 03:16:55;;;;;;;7.43;4.00;;;;;;;11.35;100.00;100174.72;5115841;28;20050;-91
2023/05/12 03:19:27;;;;;;;5.85;4.07;;;;;;;11.42;100.00;100192.03;5101595;28;20050;-92
2023/05/12 03:21:55;;;;;;;4.80;4.30;;;;;;;11.32;100.00;100179.38;5100983;28;20044;-91
2023/05/12 03:24:22;;;;;;;6.35;3.95;;;;;;;11.42;100.00;100197.34;5100853;28;20063;-91
2023/05/12 03:26:53;;;;;;;6.88;4.50;;;;;;;11.37;100.00;100190.56;5098372;28;20190;-93
2023/05/12 03:29:21;;;;;;;7.32;4.68;;;;;;;11.43;100.00;100198.19;5097318;28;20147;-93
2023/05/12 03:31:51;;;;;;;7.55;5.93;;;;;;;11.20;100.00;100152.56;5097461;28;20056;-93
2023/05/12 03:34:18;;;;;;;7.57;5.72;;;;;;;11.37;100.00;100182.59;5093462;28;20044;-92
2023/05/12 03:36:47;;;;;;;6.13;5.50;;;;;;;11.20;100.00;100159.66;5074982;28;20093;-93
2023/05/12 03:39:23;;;;;;;8.93;6.43;;;;;;;11.47;100.00;100189.16;5084974;28;20101;-94
2023/05/12 03:41:51;;;;;;;8.98;6.57;;;;;;;11.41;100.00;100179.72;5083220;28;20404;-94
2023/05/12 03:44:28;;;;;;;9.38;7.20;;;;;;;11.51;100.00;100195.97;5090783;28;20047;-93
2023/05/12 03:46:57;;;;;;;9.48;6.40;;;;;;;11.37;100.00;100177.31;5099819;28;20048;-93
2023/05/12 03:49:31;;;;;;;7.72;6.30;;;;;;;11.49;100.00;100196.06;5087807;28;20048;-92
2023/05/12 03:52:02;;;;;;;10.90;6.70;;;;;;;11.49;100.00;100193.41;5100212;28;20127;-92
2023/05/12 03:54:29;;;;;;;8.98;6.70;;;;;;;11.38;100.00;100171.91;5122908;28;20486;-93
2023/05/12 03:56:56;;;;;;;7.75;6.80;;;;;;;11.41;100.00;100177.06;5121146;28;20050;-91
2023/05/12 03:59:32;;;;;;;8.80;6.78;;;;;;;11.47;100.00;100183.84;5086251;28;20058;-91
2023/05/12 04:02:03;;;;;;;11.48;7.63;;;;;;;11.47;100.00;100192.66;5088164;28;20040;-94
2023/05/12 04:04:34;;;;;;;14.30;8.00;;;;;;;11.37;100.00;100169.34;5085375;28;20114;-93
2023/05/12 04:07:03;;;;;;;13.65;7.88;;;;;;;11.44;100.00;100190.16;5096105;28;20444;-91
2023/05/12 04:09:32;;;;;;;12.38;8.25;;;;;;;11.45;100.00;100191.88;5119934;28;20071;-93
2023/05/12 04:12:13;;;;;;;11.32;7.60;;;;;;;11.48;100.00;100197.03;5118475;28;20065;-91
2023/05/12 04:14:41;;;;;;;10.77;7.80;;;;;;;11.52;100.00;100198.53;5118249;28;20044;-90
2023/05/12 04:17:17;;;;;;;11.73;8.50;;;;;;;11.53;100.00;100194.94;5127682;28;20074;-89
2023/05/12 04:19:45;;;;;;;9.52;7.65;;;;;;;11.59;100.00;100207.91;5137985;28;20061;-90
2023/05/12 04:22:15;;;;;;;13.40;8.15;;;;;;;11.62;100.00;100208.66;5134303;27;20043;-91
2023/05/12 04:24:57;;;;;;;9.82;7.03;;;;;;;11.63;100.00;100207.75;5118328;28;20364;-89
2023/05/12 04:27:25;;;;;;;9.75;6.95;;;;;;;11.60;100.00;100204.31;5119186;28;20468;-88
2023/05/12 04:30:07;;;;;;;10.13;7.47;;;;;;;11.54;100.00;100193.16;5120130;28;20127;-90
2023/05/12 04:32:43;;;;;;;8.50;7.05;;;;;;;11.56;100.00;100209.84;5119186;28;20045;-90
2023/05/12 04:35:25;;;;;;;11.07;8.00;;;;;;;11.58;100.00;100214.13;5126033;28;20142;-89
2023/05/12 04:37:52;;;;;;;10.38;8.00;;;;;;;11.56;100.00;100220.47;5112140;28;20047;-92
2023/05/12 04:40:22;;;;;;;12.55;8.88;;;;;;;11.56;100.00;100216.00;5113590;28;20047;-89
2023/05/12 04:42:50;;;;;;;12.40;8.77;;;;;;;11.62;100.00;100221.94;5109307;28;20081;-91
2023/05/12 04:45:17;;;;;;;13.55;8.75;;;;;;;11.64;100.00;100225.38;5103520;28;20043;-89
2023/05/12 04:47:47;;;;;;;12.68;9.95;;;;;;;11.52;100.00;100201.19;5110172;28;20043;-88
2023/05/12 04:50:16;;;;;;;14.88;10.50;;;;;;;11.66;100.00;100226.09;5083450;28;20040;-88
2023/05/12 04:52:45;;;;;;;13.63;9.75;;;;;;;11.66;100.00;100229.63;5098856;28;20031;-88
2023/05/12 04:55:15;;;;;;;14.52;10.80;;;;;;;11.56;100.00;100205.41;5118026;28;20069;-89
2023/05/12 04:57:42;;;;;;;13.80;10.60;;;;;;;11.69;100.00;100228.59;5119970;28;20077;-90
2023/05/12 05:00:09;;;;;;;15.82;11.68;;;;;;;11.60;100.00;100220.22;5118743;28;20036;-89
2023/05/12 05:02:43;;;;;;;16.17;10.98;;;;;;;11.32;100.00;100177.56;5119183;28;20039;-89
2023/05/12 05:05:13;;;;;;;21.52;11.98;;;;;;;11.56;100.00;100217.81;5095272;28;20126;-91
2023/05/12 05:07:42;;;;;;;14.60;11.05;;;;;;;11.73;100.00;100241.63;5114118;28;20043;-90
2023/05/12 05:10:24;;;;;;;14.50;10.63;;;;;;;11.74;100.00;100245.13;5129169;28;20063;-90
2023/05/12 05:12:53;;;;;;;16.35;10.98;;;;;;;11.70;100.00;100238.28;5080930;28;20052;-91
2023/05/12 05:15:20;;;;;;;13.02;10.55;;;;;;;11.74;100.00;100251.31;5070108;28;20056;-90
2023/05/12 05:18:26;;;;;;;12.70;10.80;;;;;;;11.72;100.00;100249.66;5107987;28;20048;-90
2023/05/12 05:21:07;;;;;;;12.50;10.50;;;;;;;11.75;100.00;100255.66;5126753;28;20050;-91
2023/05/12 05:23:36;;;;;;;18.20;11.40;;;;;;;11.76;100.00;100259.22;5095708;28;20044;-91
2023/05/12 05:26:04;;;;;;;11.80;10.43;;;;;;;11.74;100.00;100261.06;5112349;28;20036;-90
2023/05/12 05:28:35;;;;;;;13.15;10.38;;;;;;;11.72;100.00;100269.09;5110165;28;20077;-90
2023/05/12 05:31:02;;;;;;;13.85;10.30;;;;;;;11.71;100.00;100254.13;5105956;28;20116;-91
2023/05/12 05:33:43;;;;;;;;;;;;;;;11.74;100.00;100261.06;5125288;28;20105;-90
2023/05/12 05:36:12;;;;;;;13.63;10.48;;;;;;;11.70;100.00;100265.66;5096088;28;19966;-91
2023/05/12 05:38:57;;;;;;;16.88;10.68;;;;;;;11.47;100.00;100236.88;5146837;28;20039;-90
2023/05/12 05:45:39;;;;;;;15.57;11.10;;;;;;;11.49;100.00;100249.09;5146244;28;20467;-92
2023/05/12 05:48:13;;;;;;;16.60;11.10;;;;;;;11.52;100.00;100262.19;5143352;28;20039;-90
2023/05/12 05:50:49;;;;;;;15.80;12.05;;;;;;;11.67;100.00;100281.72;5147011;28;20051;-90
2023/05/12 05:53:20;;;;;;;16.17;12.50;;;;;;;11.70;100.00;100288.69;5108372;28;20043;-90
2023/05/12 05:55:51;;;;;;;15.20;11.23;;;;;;;11.65;100.00;100262.38;5125046;28;20453;-91
2023/05/12 05:58:20;;;;;;;14.18;11.25;;;;;;;11.59;100.00;100244.16;5089798;28;20151;-91
2023/05/12 06:00:49;;;;;;;13.30;10.77;;;;;;;11.88;100.00;100285.94;5122366;28;20043;-92
2023/05/12 06:03:18;;;;;;;;;;;;;;;11.97;100.00;100281.91;5108392;28;20050;-91
2023/05/12 06:09:35;;;;;;;12.38;10.48;;;;;;;11.99;100.00;100266.75;5154433;28;20043;-92
2023/05/12 06:12:18;;;;;;;13.35;10.88;;;;;;;12.01;100.00;100278.16;5131397;28;20035;-92
2023/05/12 06:14:48;;;;;;;13.57;10.85;;;;;;;12.05;100.00;100287.66;5143179;28;20039;-93
2023/05/12 06:17:16;;;;;;;14.63;10.20;;;;;;;12.00;100.00;100289.72;5142744;27;20050;-92
2023/05/12 06:19:46;;;;;;;13.15;10.98;;;;;;;12.00;100.00;100287.06;5130097;27;20043;-91
2023/05/12 06:26:01;;;;;;;11.63;9.80;;;;;;;12.10;100.00;100313.97;5161662;27;20063;-91
2023/05/12 06:28:30;;;;;;;12.27;9.60;;;;;;;12.04;100.00;100304.53;5139127;27;20081;-91
2023/05/12 06:31:23;;;;;;;11.20;9.15;;;;;;;12.07;100.00;100308.81;5145724;27;20092;-92
2023/05/12 06:33:50;;;;;;;14.10;9.88;;;;;;;12.06;100.00;100307.97;5125955;27;20035;-92
2023/05/12 06:36:32;;;;;;;11.43;8.80;;;;;;;12.12;100.00;100317.41;5127314;27;20066;-91
2023/05/12 06:39:03;;;;;;;13.20;8.80;;;;;;;12.12;100.00;100312.91;5147441;27;20107;-91
2023/05/12 06:41:32;;;;;;;10.82;9.57;;;;;;;12.18;100.00;100330.31;5146822;27;20064;-90
2023/05/12 06:44:01;;;;;;;14.13;8.93;;;;;;;12.17;100.00;100318.00;5143196;27;20051;-89
2023/05/12 06:46:28;;;;;;;15.63;9.38;;;;;;;12.27;100.00;100328.03;5126143;27;20480;-90
2023/05/12 06:48:59;;;;;;;11.55;9.00;;;;;;;12.20;100.00;100302.75;5125135;27;20043;-90
2023/05/12 06:51:26;;;;;;;10.93;9.07;;;;;;;12.34;100.00;100312.59;5123982;27;20078;-90
2023/05/12 06:53:53;;;;;;;12.05;9.45;;;;;;;12.48;100.00;100323.31;5123472;27;20051;-90
2023/05/12 06:56:22;;;;;;;13.85;10.93;;;;;;;12.53;100.00;100305.34;5129089;27;20141;-90
2023/05/12 06:58:51;;;;;;;16.77;10.85;;;;;;;12.59;100.00;100274.91;5130695;27;20047;-90
2023/05/12 07:01:18;;;;;;;11.63;9.95;;;;;;;12.97;100.00;100316.06;5115489;27;20071;-91
2023/05/12 07:03:53;;;;;;;10.07;8.93;;;;;;;12.99;100.00;100298.22;5129723;27;20080;-89
2023/05/12 07:06:28;;;;;;;10.65;8.43;;;;;;;13.10;100.00;100320.66;5112163;27;20043;-90
2023/05/12 07:08:55;;;;;;;11.30;8.45;;;;;;;13.08;100.00;100325.22;5121657;28;20051;-90
2023/05/12 07:11:27;;;;;;;10.15;8.80;;;;;;;12.89;100.00;100294.41;5122003;28;20135;-89
2023/05/12 07:14:00;;;;;;;10.23;8.95;;;;;;;12.91;100.00;100321.72;5122338;28;20062;-89
2023/05/12 07:16:29;;;;;;;9.10;8.18;;;;;;;12.89;100.00;100328.97;5122152;28;20043;-90
2023/05/12 07:27:01;;;;;;;;;;;;;;;13.10;100.00;100332.16;5123883;28;20046;-90
2023/05/12 07:29:32;;;;;;;9.82;8.80;;;;;;;12.85;100.00;100297.31;5107673;28;19946;-90
2023/05/12 07:31:59;;;;;;;10.18;8.45;;;;;;;12.99;100.00;100331.94;5105593;28;20082;-89
2023/05/12 07:54:31;;;;;;;8.52;7.70;;;;;;;12.65;100.00;100330.34;5043709;28;20079;-91
2023/05/12 08:01:11;;;;;;;11.23;7.10;;;;;;;12.57;100.00;100333.44;5113541;28;20042;-89
2023/05/12 08:11:20;;;;;;;9.75;6.93;;;;;;;12.88;100.00;100337.88;5116108;28;20047;-89
2023/05/12 08:14:01;;;;;;;10.77;7.72;;;;;;;12.99;100.00;100335.44;5102936;28;20035;-90
2023/05/12 08:16:53;;;;;;;8.45;7.55;;;;;;;13.17;100.00;100336.22;5078435;28;20127;-89
2023/05/12 08:19:23;;;;;;;;;;;;;;;13.26;100.00;100338.31;5101831;28;20120;-89
2023/05/12 08:21:50;;;;;;;8.50;6.25;;;;;;;13.36;100.00;100340.47;5077813;28;19935;-89
2023/05/12 08:24:21;;;;;;;7.15;6.43;;;;;;;13.44;100.00;100339.03;5077253;28;20465;-88
2023/05/12 08:26:51;;;;;;;7.63;6.10;;;;;;;13.59;100.00;100339.91;5078945;28;20044;-90
2023/05/12 08:29:19;;;;;;;7.50;6.75;;;;;;;13.29;100.00;100265.47;5035920;28;20076;-90
2023/05/12 08:31:50;;;;;;;8.55;7.32;;;;;;;13.68;100.00;100307.44;5051582;28;20051;-89
2023/05/12 08:34:20;;;;;;;9.80;7.05;;;;;;;13.79;100.00;100304.13;5066271;28;20075;-90
2023/05/12 08:36:54;;;;;;;7.47;6.18;;;;;;;13.88;100.00;100332.81;5087659;28;20048;-88
2023/05/12 08:39:46;;;;;;;6.25;5.57;;;;;;;13.87;100.00;100339.09;5087937;28;20063;-88
2023/05/12 08:43:03;;;;;;;6.47;5.78;;;;;;;13.83;100.00;100334.94;5087883;28;20059;-88
2023/05/12 08:53:42;;;;;;;7.22;6.05;;;;;;;14.46;100.00;100300.78;5084087;28;20124;-91
2023/05/12 08:56:44;;;;;;;6.72;5.40;;;;;;;14.35;100.00;100284.56;5082332;28;20091;-90
2023/05/12 08:59:58;;;;;;;8.00;5.55;;;;;;;14.62;100.00;100338.78;5070565;28;20039;-90
2023/05/12 09:10:46;;;;;;;6.00;5.13;;;;;;;15.09;100.00;100342.84;5082459;28;20047;-91
2023/05/12 09:17:32;;;;;;;5.47;4.97;;;;;;;14.82;100.00;100313.50;5083629;28;20039;-90
2023/05/12 09:20:26;;;;;;;;;;;;;;;14.97;100.00;100339.13;5070419;28;20467;-90
2023/05/12 09:23:55;;;;;;;7.07;4.75;;;;;;;14.98;100.00;100340.00;5071563;28;20309;-91
2023/05/12 09:30:10;;;;;;;5.93;4.70;;;;;;;14.87;100.00;100330.03;5103023;28;19915;-90
2023/05/12 09:37:46;;;;;;;5.65;4.60;;;;;;;15.39;100.00;100329.25;4992301;28;20049;-90
2023/05/12 09:44:46;;;;;;;7.50;4.68;;;;;;;15.69;100.00;100323.66;4945166;29;20159;-91
2023/05/12 09:51:39;;;;;;;5.38;4.43;;;;;;;16.10;100.00;100307.38;4964542;28;20046;-90
2023/05/12 09:58:23;;;;;;;5.00;4.60;;;;;;;16.18;100.00;100307.69;4964869;29;20070;-89
2023/05/12 10:01:16;;;;;;;6.03;4.40;;;;;;;16.02;100.00;100323.09;5028665;28;20091;-91
2023/05/12 10:03:57;;;;;;;7.15;5.45;;;;;;;15.81;100.00;100309.44;5034868;28;20050;-89
2023/05/12 10:10:04;;;;;;;4.60;4.20;;;;;;;15.52;100.00;100283.88;5053857;28;20520;-92
2023/05/12 10:12:38;;;;;;;5.72;4.38;;;;;;;15.78;100.00;100328.34;5071034;28;20060;-90
2023/05/12 10:15:25;;;;;;;4.63;4.10;;;;;;;15.84;100.00;100316.38;5097808;28;20036;-90
2023/05/12 10:17:54;;;;;;;4.43;3.95;;;;;;;15.90;100.00;100311.44;5085042;28;20067;-90
2023/05/12 10:20:36;;;;;;;4.40;4.00;;;;;;;15.57;100.00;100285.31;5104411;28;20032;-89
2023/05/12 10:27:05;;;;;;;4.53;3.78;;;;;;;15.82;100.00;100324.50;5115681;28;20062;-90
2023/05/12 10:29:43;;;;;;;6.90;4.20;;;;;;;15.85;100.00;100328.78;5088479;28;20054;-91
2023/05/12 10:32:12;;;;;;;6.03;4.47;;;;;;;15.75;100.00;100312.53;5107011;28;20109;-89
2023/05/12 10:34:40;;;;;;;5.75;4.20;;;;;;;15.81;100.00;100329.94;5092955;28;20052;-89
2023/05/12 10:37:34;;;;;;;6.13;4.38;;;;;;;15.76;100.00;100336.44;5085461;28;20138;-90
2023/05/12 10:40:23;;;;;;;5.97;4.22;;;;;;;15.66;100.00;100319.38;5091259;28;20384;-90
2023/05/12 10:43:00;;;;;;;4.32;3.83;;;;;;;15.67;100.00;100325.56;5072296;28;20043;-91
2023/05/12 10:45:42;;;;;;;4.93;4.43;;;;;;;15.70;100.00;100320.88;5062212;28;20054;-91
2023/05/12 10:48:23;;;;;;;5.03;4.20;;;;;;;15.53;100.00;100309.63;5074604;28;20052;-91
2023/05/12 10:51:06;;;;;;;5.43;4.93;;;;;;;15.47;100.00;100318.88;5089222;28;20113;-90
2023/05/12 10:53:40;;;;;;;5.33;4.83;;;;;;;15.36;100.00;100334.78;5091319;28;20070;-92
2023/05/12 10:56:37;;;;;;;6.93;5.40;;;;;;;15.19;100.00;100327.06;5092290;28;20071;-89
2023/05/12 10:59:05;;;;;;;6.78;5.38;;;;;;;15.15;100.00;100328.22;5105829;28;20048;-91
2023/05/12 11:01:54;;;;;;;8.35;5.65;;;;;;;15.07;100.00;100329.59;5026271;28;20041;-92
2023/05/12 11:04:36;;;;;;;8.02;5.80;;;;;;;15.04;100.00;100334.25;5038883;28;20037;-91
2023/05/12 11:07:05;;;;;;;11.30;6.00;;;;;;;14.98;100.00;100316.84;5057308;28;20046;-90
2023/05/12 11:09:40;;;;;;;7.93;5.90;;;;;;;15.12;100.00;100333.75;5049680;28;20072;-91
2023/05/12 11:12:26;;;;;;;6.70;5.50;;;;;;;15.20;100.00;100326.09;5041870;28;20052;-90
2023/05/12 11:14:59;;;;;;;9.70;6.25;;;;;;;15.46;100.00;100330.53;5046638;28;20056;-91
2023/05/12 11:17:27;;;;;;;8.95;6.05;;;;;;;15.63;100.00;100334.72;5050097;28;20052;-89
2023/05/12 11:19:55;;;;;;;6.93;6.13;;;;;;;15.73;100.00;100344.69;5066896;28;20048;-89
2023/05/12 11:22:30;;;;;;;6.63;5.93;;;;;;;15.85;100.00;100348.31;5052092;28;20044;-90
2023/05/12 11:24:57;;;;;;;10.15;6.88;;;;;;;16.08;100.00;100352.03;5067894;28;20104;-89
2023/05/12 11:27:28;;;;;;;8.90;6.43;;;;;;;16.15;100.00;100356.00;5070488;28;20040;-88
2023/05/12 11:30:10;;;;;;;8.55;6.78;;;;;;;16.05;100.00;100339.78;5057973;28;20393;-88
2023/05/12 11:32:38;;;;;;;7.47;6.70;;;;;;;16.09;100.00;100348.41;5073193;28;20045;-89
2023/05/12 11:35:14;;;;;;;6.80;6.10;;;;;;;16.03;100.00;100347.03;5072339;28;20059;-87
2023/05/12 11:37:59;;;;;;;11.38;7.05;;;;;;;15.87;100.00;100329.53;5074874;28;20052;-88
2023/05/12 11:43:55;;;;;;;7.75;6.72;;;;;;;16.02;100.00;100340.00;5095750;28;20035;-90
2023/05/12 11:46:28;;;;;;;7.63;6.75;;;;;;;16.12;100.00;100353.53;5080857;28;20063;-89
2023/05/12 11:48:57;;;;;;;8.23;7.35;;;;;;;16.01;100.00;100324.94;5081194;28;20037;-89
2023/05/12 11:51:26;;;;;;;7.47;6.78;;;;;;;16.03;100.00;100359.53;5096665;28;20062;-88
2023/05/12 11:54:05;;;;;;;8.73;6.40;;;;;;;15.86;100.00;100354.53;5081923;28;20036;-89
2023/05/12 11:56:51;;;;;;;8.63;6.45;;;;;;;15.88;100.00;100360.63;5019112;28;20042;-89
2023/05/12 11:59:29;;;;;;;6.15;4.13;;;;;;;15.50;100.00;100326.69;5018608;28;20490;-87
2023/05/12 12:02:02;;;;;;;3.60;3.00;;;;;;;15.38;100.00;100357.75;5037138;28;20109;-88
2023/05/12 12:04:43;;;;;;;2.63;2.42;;;;;;;15.27;100.00;100362.06;5018143;28;20042;-87
2023/05/12 12:07:36;;;;;;;;;;;;;;;15.34;100.00;100382.06;5037198;28;20034;-87
2023/05/12 12:10:16;;;;;;;4.30;2.58;;;;;;;15.32;100.00;100386.63;5033286;28;19905;-89
2023/05/12 12:13:01;;;;;;;4.72;2.45;;;;;;;15.18;100.00;100384.03;5020865;28;20061;-87
2023/05/12 12:15:37;;;;;;;4.70;3.00;;;;;;;15.04;100.00;100377.78;5021466;28;20034;-87
2023/05/12 12:21:34;;;;;;;3.28;2.60;;;;;;;15.04;100.00;100372.47;5075163;28;20032;-89
2023/05/12 12:24:27;;;;;;;4.18;3.20;;;;;;;15.23;100.00;100379.25;5085298;28;20038;-88
2023/05/12 12:26:57;;;;;;;6.10;3.10;;;;;;;15.29;100.00;100370.81;5081481;28;20041;-87
2023/05/12 12:29:25;;;;;;;4.00;3.13;;;;;;;15.31;100.00;100360.91;5081425;28;20037;-88
2023/05/12 12:31:57;;;;;;;5.35;3.63;;;;;;;15.45;100.00;100376.84;5098387;28;20036;-90
2023/05/12 12:38:33;;;;;;;3.97;3.00;;;;;;;15.77;100.00;100372.00;5098501;28;20107;-89
2023/05/12 12:41:05;;;;;;;5.13;3.20;;;;;;;15.93;100.00;100379.81;5077791;28;20062;-89
2023/05/12 12:43:44;;;;;;;4.13;3.03;;;;;;;16.03;100.00;100375.56;5079123;28;20071;-89
2023/05/12 12:46:15;;;;;;;3.47;3.17;;;;;;;16.15;100.00;100372.03;5081492;28;20060;-89
2023/05/12 12:48:46;;;;;;;3.72;3.25;;;;;;;16.19;100.00;100351.31;5065657;28;20072;-86
2023/05/12 12:51:14;;;;;;;6.97;3.70;;;;;;;16.36;100.00;100370.53;5098300;28;20033;-88
2023/05/12 12:53:46;;;;;;;5.50;3.15;;;;;;;16.34;100.00;100372.44;5098196;28;20040;-86
2023/05/12 12:56:17;;;;;;;5.43;3.47;;;;;;;16.26;100.00;100374.78;5080829;28;20041;-88
2023/05/12 15:03:38;;;;;;;2.15;1.98;;;;;;;17.69;100.00;100331.22;5669573;22;15238071;-90
2023/05/12 15:06:13;;;;;;;;;;;;;;;18.16;93.88;100381.94;6240420;22;20016;-91
2023/05/12 15:08:44;;;;;;;3.70;2.33;;;;;;;18.09;97.60;100370.03;6259318;22;19922;-90
2023/05/12 15:11:12;;;;;;;5.60;2.40;;;;;;;18.04;92.24;100374.03;6258402;22;20019;-90
2023/05/12 15:13:45;;;;;;;2.55;2.35;;;;;;;18.10;90.76;100374.38;6259026;22;20099;-90
2023/05/12 15:16:12;;;;;;;4.15;2.20;;;;;;;18.15;93.39;100377.56;6260508;22;20019;-91
2023/05/12 15:18:42;;;;;;;;;;;;;;;18.30;82.18;100383.53;6259841;22;20070;-91
2023/05/12 15:21:10;;;;;;;2.85;2.08;;;;;;;18.10;87.30;100378.91;6257345;22;19959;-91
2023/05/12 15:23:42;;;;;;;2.53;1.98;;;;;;;17.84;82.63;100363.03;6260697;22;20011;-91
2023/05/12 15:26:12;;;;;;;2.50;2.30;;;;;;;17.73;85.23;100365.69;6287023;22;20019;-91
2023/05/12 15:29:00;;;;;;;2.63;2.08;;;;;;;17.79;86.76;100370.56;6251041;22;20026;-90
2023/05/12 15:31:42;;;;;;;4.65;2.00;;;;;;;17.88;82.22;100363.66;6301095;22;20012;-90
2023/05/12 15:34:36;;;;;;;2.88;1.83;;;;;;;17.88;86.38;100380.56;6273155;22;20011;-89
2023/05/12 15:37:05;;;;;;;2.63;2.35;;;;;;;17.63;84.06;100367.31;6269259;22;20011;-90
2023/05/12 15:39:32;;;;;;;1.92;1.83;;;;;;;17.53;90.42;100382.38;6240016;22;20019;-90
2023/05/12 15:42:11;;;;;;;2.47;2.20;;;;;;;17.38;89.08;100388.91;6228427;23;20017;-88
2023/05/12 15:44:51;;;;;;;3.00;2.13;;;;;;;17.21;93.34;100386.63;6230661;23;20051;-89